Time;durP1;ratioP1;P1;durP2;ratioP2;P2;SDS_P1;SDS_P2;PMS_P1;PMS_P2;Temp;Humidity;BMP_temperature;BMP_pressure;BME280_temperature;BME280_humidity;BME280_pressure;Samples;Min_cycle;Max_cycle;Signal;HPM_P1;HPM_P2
2021/12/08 00:02:09;;;;;;;1.90;1.60;;;7.50;77.40;;;;;;5046026;28;20045;-95
2021/12/08 00:04:46;;;;;;;2.25;1.50;;;7.40;77.30;;;;;;5038095;28;20049;-93
2021/12/08 00:07:36;;;;;;;2.35;1.85;;;7.50;77.20;;;;;;5042618;28;20033;-93
2021/12/08 00:10:52;;;;;;;2.45;1.67;;;7.50;77.40;;;;;;5041145;28;20538;-94
2021/12/08 00:16:58;;;;;;;1.88;1.40;;;7.50;77.40;;;;;;5043846;28;20107;-92
2021/12/08 00:19:40;;;;;;;1.92;1.70;;;7.50;77.30;;;;;;5039713;28;20360;-94
2021/12/08 00:22:28;;;;;;;2.72;1.85;;;7.50;77.30;;;;;;5024987;28;20111;-94
2021/12/08 00:25:12;;;;;;;1.92;1.52;;;7.50;77.30;;;;;;5026722;28;20033;-94
2021/12/08 00:27:59;;;;;;;2.05;1.55;;;7.50;77.30;;;;;;5039823;28;20466;-93
2021/12/08 00:30:29;;;;;;;3.60;2.00;;;7.50;77.30;;;;;;5039646;28;20492;-94
2021/12/08 00:33:34;;;;;;;;;;;;;;;;;;;;;
2021/12/08 00:36:54;;;;;;;;;;;;;;;;;;;;;
2021/12/08 00:39:59;;;;;;;;;;;;;;;;;;;;;
2021/12/08 00:42:58;;;;;;;;;;;;;;;;;;;;;
2021/12/08 00:45:44;;;;;;;2.35;1.83;;;7.50;77.20;;;;;;5056739;28;20461;-94
2021/12/08 00:51:53;;;;;;;2.45;1.77;;;7.60;77.40;;;;;;5043667;28;20474;-92
2021/12/08 00:54:54;;;;;;;;;;;;;;;;;;;;;
2021/12/08 00:57:20;;;;;;;3.50;1.85;;;7.60;77.40;;;;;;5046763;28;20500;-93
2021/12/08 01:00:02;;;;;;;;;;;;;;;;;;;;;
2021/12/08 01:03:45;;;;;;;;;;;;;;;;;;;;;
2021/12/08 01:06:58;;;;;;;2.13;1.60;;;7.60;77.40;;;;;;5056248;28;20168;-91
2021/12/08 01:09:27;;;;;;;3.15;1.63;;;7.60;77.20;;;;;;5038118;28;20389;-91
2021/12/08 01:15:28;;;;;;;2.65;1.80;;;7.60;77.40;;;;;;5046833;28;20084;-93
2021/12/08 01:18:16;;;;;;;;;;;;;;;;;;;;;
2021/12/08 01:21:22;;;;;;;;;;;;;;;;;;;;;
2021/12/08 01:24:10;;;;;;;1.63;1.52;;;7.60;77.30;;;;;;5054866;28;20037;-94
2021/12/08 01:27:03;;;;;;;2.72;1.75;;;7.60;77.20;;;;;;5037954;28;20041;-93
2021/12/08 01:30:05;;;;;;;;;;;;;;;;;;;;;
2021/12/08 01:33:16;;;;;;;3.38;1.60;;;7.60;77.30;;;;;;5055633;28;20029;-92
2021/12/08 01:36:04;;;;;;;2.63;1.55;;;7.60;77.40;;;;;;5034010;28;20488;-93
2021/12/08 01:38:58;;;;;;;3.17;1.85;;;7.60;77.30;;;;;;5039523;28;20036;-93
2021/12/08 01:42:15;;;;;;;;;;;;;;;;;;;;;
2021/12/08 01:48:05;;;;;;;2.63;1.58;;;7.60;77.20;;;;;;5053685;28;20079;-93
2021/12/08 01:50:46;;;;;;;2.20;1.80;;;7.60;77.30;;;;;;5038432;28;20431;-93
2021/12/08 01:53:30;;;;;;;1.95;1.67;;;7.60;77.40;;;;;;5040053;28;20098;-92
2021/12/08 02:03:11;;;;;;;2.00;1.65;;;7.60;78.00;;;;;;5048854;28;20055;-94
2021/12/08 02:06:08;;;;;;;;;;;;;;;;;;;;;
2021/12/08 02:12:38;;;;;;;1.70;1.48;;;7.70;77.50;;;;;;5032989;28;20064;-92
2021/12/08 02:16:12;;;;;;;;;;;;;;;;;;;;;
2021/12/08 02:19:21;;;;;;;1.65;1.50;;;7.70;77.50;;;;;;5054650;28;20025;-92
2021/12/08 02:22:17;;;;;;;1.60;1.50;;;7.60;77.40;;;;;;5039541;28;20033;-92
2021/12/08 02:25:32;;;;;;;2.03;1.50;;;7.70;77.40;;;;;;5048011;28;20045;-91
2021/12/08 02:28:15;;;;;;;1.98;1.58;;;7.70;77.50;;;;;;5054892;28;20032;-92
2021/12/08 02:31:35;;;;;;;1.65;1.40;;;7.70;77.40;;;;;;5054135;28;20055;-92
2021/12/08 02:51:41;;;;;;;;;;;;;;;;;;;;;
2021/12/08 02:54:25;;;;;;;2.38;1.50;;;7.70;77.50;;;;;;5057913;28;20488;-94
2021/12/08 02:57:38;;;;;;;2.63;1.60;;;7.70;77.50;;;;;;5053710;28;20375;-94
2021/12/08 03:00:59;;;;;;;1.98;1.35;;;7.70;77.60;;;;;;5028909;28;20037;-95
2021/12/08 03:04:44;;;;;;;1.95;1.52;;;7.70;77.50;;;;;;5054988;28;20053;-94
2021/12/08 03:07:31;;;;;;;;;;;;;;;;;;;;;
2021/12/08 03:10:16;;;;;;;2.15;1.42;;;7.80;77.50;;;;;;5057548;28;20029;-93
2021/12/08 03:13:55;;;;;;;1.92;1.35;;;7.80;77.50;;;;;;5047304;28;20049;-93
2021/12/08 03:16:58;;;;;;;;;;;;;;;;;;;;;
2021/12/08 03:27:17;;;;;;;1.83;1.33;;;7.80;77.50;;;;;;5057286;28;20033;-94
2021/12/08 03:30:50;;;;;;;2.40;1.40;;;7.80;77.50;;;;;;5043457;28;20052;-92
2021/12/08 03:37:38;;;;;;;1.40;1.30;;;7.80;77.50;;;;;;4996372;28;20050;-94
2021/12/08 03:40:49;;;;;;;1.63;1.33;;;7.80;77.40;;;;;;5057802;28;20039;-94
2021/12/08 03:43:36;;;;;;;1.88;1.50;;;7.80;77.40;;;;;;5031299;28;20066;-93
2021/12/08 03:46:38;;;;;;;1.70;1.60;;;7.80;77.40;;;;;;5040821;28;20029;-94
2021/12/08 03:50:01;;;;;;;1.50;1.40;;;7.80;77.50;;;;;;5045876;28;20064;-94
2021/12/08 03:53:19;;;;;;;;;;;;;;;;;;;;;
2021/12/08 03:56:46;;;;;;;;;;;;;;;;;;;;;
2021/12/08 03:59:40;;;;;;;1.60;1.42;;;7.80;77.40;;;;;;5056455;28;20416;-93
2021/12/08 04:03:01;;;;;;;1.75;1.50;;;7.80;77.40;;;;;;5044278;28;20040;-95
2021/12/08 04:06:44;;;;;;;;;;;;;;;;;;;;;
2021/12/08 04:13:47;;;;;;;;;;;;;;;;;;;;;
2021/12/08 04:17:31;;;;;;;1.50;1.20;;;7.90;77.50;;;;;;4981549;28;20038;-94
2021/12/08 04:23:21;;;;;;;1.35;1.25;;;7.80;77.40;;;;;;5038226;28;20366;-93
2021/12/08 04:26:52;;;;;;;;;;;;;;;;;;;;;
2021/12/08 04:29:46;;;;;;;1.30;1.20;;;7.90;77.60;;;;;;5055563;28;20091;-93
2021/12/08 04:33:11;;;;;;;1.73;1.40;;;7.90;77.50;;;;;;5056736;28;20047;-93
2021/12/08 04:36:22;;;;;;;2.70;1.40;;;7.90;77.60;;;;;;5050490;28;20044;-93
2021/12/08 04:39:08;;;;;;;;;;;;;;;;;;;;;
2021/12/08 05:01:59;;;;;;;1.40;1.30;;;8.00;77.60;;;;;;5055019;28;20124;-93
2021/12/08 05:08:58;;;;;;;;;;;;;;;;;;;;;
2021/12/08 05:12:08;;;;;;;1.40;1.30;;;8.00;77.60;;;;;;5055425;28;20059;-93
2021/12/08 05:15:30;;;;;;;;;;;;;;;;;;;;;
2021/12/08 05:18:53;;;;;;;;;;;;;;;;;;;;;
2021/12/08 05:22:19;;;;;;;1.20;1.10;;;8.00;77.50;;;;;;5032074;28;20072;-93
2021/12/08 05:25:39;;;;;;;1.15;1.05;;;8.00;77.50;;;;;;5055232;28;20470;-93
2021/12/08 05:28:55;;;;;;;;;;;;;;;;;;;;;
2021/12/08 05:31:50;;;;;;;1.50;1.10;;;8.10;77.50;;;;;;4990394;28;20047;-92
2021/12/08 05:34:28;;;;;;;1.90;1.10;;;8.00;77.50;;;;;;5038332;28;20029;-91
2021/12/08 05:37:25;;;;;;;;;;;;;;;;;;;;;
2021/12/08 05:40:36;;;;;;;1.75;1.55;;;8.10;77.50;;;;;;5041606;28;20029;-93
2021/12/08 05:43:13;;;;;;;1.33;1.20;;;8.00;77.50;;;;;;5041374;28;20035;-90
2021/12/08 05:45:42;;;;;;;1.58;1.08;;;8.10;77.50;;;;;;5038488;28;20029;-90
2021/12/08 05:48:49;;;;;;;;;;;;;;;;;;;;;
2021/12/08 05:51:48;;;;;;;1.85;1.30;;;8.10;77.60;;;;;;5060653;28;20116;-90
2021/12/08 05:54:35;;;;;;;1.92;1.27;;;8.10;77.50;;;;;;5040775;28;20029;-91
2021/12/08 05:57:55;;;;;;;1.85;1.30;;;8.10;77.40;;;;;;5054088;28;20035;-91
2021/12/08 06:01:27;;;;;;;1.40;1.10;;;8.10;77.50;;;;;;5032978;28;20465;-91
2021/12/08 06:04:16;;;;;;;1.17;1.10;;;8.00;77.50;;;;;;5001849;28;20050;-90
2021/12/08 06:07:38;;;;;;;1.42;1.02;;;8.10;77.50;;;;;;5054538;28;20033;-89
2021/12/08 06:10:17;;;;;;;1.33;1.20;;;8.00;77.50;;;;;;5037076;28;20033;-91
2021/12/08 06:12:51;;;;;;;1.13;1.10;;;8.00;77.40;;;;;;5053473;28;20045;-91
2021/12/08 06:16:23;;;;;;;1.85;1.15;;;8.10;77.50;;;;;;5033195;28;20445;-90
2021/12/08 06:19:40;;;;;;;;;;;;;;;;;;;;;
2021/12/08 06:22:18;;;;;;;1.00;1.00;;;8.00;77.50;;;;;;5039245;28;20562;-91
2021/12/08 06:25:12;;;;;;;1.73;1.10;;;8.00;77.40;;;;;;5054351;28;20542;-90
2021/12/08 06:28:07;;;;;;;2.47;1.33;;;8.00;77.50;;;;;;5053726;28;20044;-91
2021/12/08 06:31:23;;;;;;;0.90;0.90;;;8.00;77.40;;;;;;5054666;28;20385;-91
2021/12/08 06:34:02;;;;;;;1.25;1.08;;;8.00;77.50;;;;;;5037932;28;20064;-91
2021/12/08 06:37:24;;;;;;;1.55;1.10;;;8.00;77.40;;;;;;5052187;28;20033;-90
2021/12/08 06:40:32;;;;;;;1.70;1.30;;;8.00;77.50;;;;;;5000416;28;20095;-91
2021/12/08 06:43:33;;;;;;;1.45;1.20;;;8.00;77.50;;;;;;5054314;28;20048;-90
2021/12/08 06:46:32;;;;;;;1.73;1.13;;;8.00;77.40;;;;;;5053565;28;20033;-90
2021/12/08 06:49:06;;;;;;;1.38;1.20;;;8.00;77.40;;;;;;5055068;28;20029;-92
2021/12/08 06:52:11;;;;;;;1.30;1.20;;;8.00;77.40;;;;;;5054035;28;20025;-90
2021/12/08 06:54:48;;;;;;;2.00;1.20;;;8.00;77.60;;;;;;5053629;28;20037;-87
2021/12/08 06:58:09;;;;;;;;;;;;;;;;;;;;;
2021/12/08 07:01:46;;;;;;;;;;;;;;;;;;;;;
2021/12/08 07:09:01;;;;;;;1.30;1.20;;;7.90;77.50;;;;;;5031225;28;20048;-91
2021/12/08 07:11:39;;;;;;;2.65;1.25;;;7.90;77.50;;;;;;5053845;28;20029;-92
2021/12/08 07:14:34;;;;;;;1.17;1.05;;;7.90;77.40;;;;;;5023843;28;20119;-93
2021/12/08 07:17:07;;;;;;;;;;;7.90;77.50;;;;;;5021156;28;20433;-93
2021/12/08 07:20:33;;;;;;;1.60;1.23;;;7.90;77.40;;;;;;5037933;28;20335;-88
2021/12/08 07:22:50;;;;;;;0.90;0.90;;;7.80;77.30;;;;;;5052000;28;20036;-93
2021/12/08 07:25:23;;;;;;;1.90;1.20;;;7.80;77.50;;;;;;5053964;28;20090;-87
2021/12/08 07:27:50;;;;;;;1.10;1.00;;;7.80;77.40;;;;;;5054039;28;20033;-88
2021/12/08 07:30:26;;;;;;;1.42;1.15;;;7.80;77.50;;;;;;5039844;28;20021;-88
2021/12/08 07:32:52;;;;;;;1.77;1.30;;;7.80;77.50;;;;;;5040660;28;20039;-89
2021/12/08 07:35:37;;;;;;;1.98;1.38;;;7.80;77.40;;;;;;5040146;28;20491;-89
2021/12/08 07:38:06;;;;;;;1.40;1.10;;;7.80;77.50;;;;;;5039416;28;20041;-88
2021/12/08 07:40:52;;;;;;;1.45;1.20;;;7.80;77.40;;;;;;5056065;28;20025;-91
2021/12/08 07:43:22;;;;;;;1.48;1.20;;;7.80;77.50;;;;;;5039381;28;20045;-88
2021/12/08 07:45:53;;;;;;;1.55;1.20;;;7.80;77.30;;;;;;5039779;28;20037;-85
2021/12/08 07:48:28;;;;;;;1.73;1.10;;;7.80;77.30;;;;;;5055594;28;20094;-84
2021/12/08 07:51:03;;;;;;;1.83;1.20;;;7.80;77.30;;;;;;5039846;28;20079;-86
2021/12/08 07:53:32;;;;;;;2.00;1.42;;;7.80;77.30;;;;;;5039962;28;20025;-85
2021/12/08 07:56:03;;;;;;;1.10;1.00;;;7.80;77.30;;;;;;5058646;28;20064;-86
2021/12/08 07:58:32;;;;;;;2.22;1.10;;;7.80;77.30;;;;;;5039503;28;20021;-85
2021/12/08 08:01:12;;;;;;;1.25;1.05;;;7.80;77.30;;;;;;5039030;28;20028;-87
2021/12/08 08:03:42;;;;;;;2.08;1.23;;;7.80;77.30;;;;;;5039588;28;20040;-85
2021/12/08 08:06:15;;;;;;;1.30;1.20;;;7.80;77.20;;;;;;5061511;28;20029;-87
2021/12/08 08:08:43;;;;;;;1.95;1.20;;;7.80;77.20;;;;;;5048422;28;20055;-86
2021/12/08 08:11:26;;;;;;;1.38;1.10;;;7.80;77.20;;;;;;5056388;28;20115;-87
2021/12/08 08:13:53;;;;;;;2.67;1.20;;;7.80;77.20;;;;;;5039608;28;20029;-86
2021/12/08 08:16:25;;;;;;;1.95;1.17;;;7.80;77.20;;;;;;5055406;28;20072;-88
2021/12/08 08:19:01;;;;;;;2.58;1.40;;;7.80;77.30;;;;;;5056054;28;20025;-85
2021/12/08 08:21:30;;;;;;;1.90;1.38;;;7.80;77.20;;;;;;5056505;28;20366;-85
2021/12/08 08:24:00;;;;;;;1.52;1.38;;;7.70;77.20;;;;;;5038517;28;20112;-85
2021/12/08 08:26:39;;;;;;;1.52;1.10;;;7.80;77.20;;;;;;5022815;28;20040;-87
2021/12/08 08:29:08;;;;;;;1.80;1.20;;;7.80;77.20;;;;;;5040780;28;20108;-86
2021/12/08 08:35:47;;;;;;;;;;;;;;;;;;;;;
2021/12/08 08:38:34;;;;;;;2.17;1.08;;;7.70;77.20;;;;;;5055308;28;20112;-89
2021/12/08 08:41:59;;;;;;;;;;;;;;;;;;;;;
2021/12/08 08:44:45;;;;;;;2.05;1.20;;;7.70;77.30;;;;;;5048218;28;20080;-91
2021/12/08 08:47:28;;;;;;;2.38;1.25;;;7.70;77.20;;;;;;5038788;28;20036;-88
2021/12/08 08:49:56;;;;;;;2.85;1.58;;;7.70;77.40;;;;;;5038701;28;20070;-87
2021/12/08 08:52:30;;;;;;;1.52;1.20;;;7.70;77.30;;;;;;5038781;28;20076;-88
2021/12/08 08:54:59;;;;;;;2.20;1.23;;;7.70;77.30;;;;;;5039175;28;20040;-87
2021/12/08 08:57:34;;;;;;;1.98;1.55;;;7.70;77.30;;;;;;5038271;28;20025;-86
2021/12/08 09:04:00;;;;;;;1.65;1.20;;;7.70;77.20;;;;;;5052964;28;20047;-93
2021/12/08 09:06:31;;;;;;;2.75;1.25;;;7.70;77.30;;;;;;5052122;28;20509;-91
2021/12/08 09:09:02;;;;;;;2.10;1.43;;;7.70;77.20;;;;;;5038042;28;20044;-91
2021/12/08 09:11:34;;;;;;;2.47;1.30;;;7.70;77.20;;;;;;5055277;28;20029;-92
2021/12/08 09:14:08;;;;;;;1.88;1.27;;;7.70;77.30;;;;;;5043981;28;20063;-90
2021/12/08 09:16:48;;;;;;;2.65;1.30;;;7.70;77.30;;;;;;5060521;28;20128;-91
2021/12/08 09:19:27;;;;;;;1.27;1.17;;;7.70;77.30;;;;;;5038662;28;20033;-91
2021/12/08 09:22:07;;;;;;;1.23;1.17;;;7.70;77.30;;;;;;5038234;28;20036;-89
2021/12/08 09:24:47;;;;;;;2.10;1.25;;;7.80;77.30;;;;;;5038598;28;20040;-92
2021/12/08 09:27:21;;;;;;;1.23;1.10;;;7.70;77.30;;;;;;5037710;28;20041;-90
2021/12/08 09:30:04;;;;;;;2.00;1.30;;;7.80;77.30;;;;;;5051161;28;20032;-92
2021/12/08 09:32:38;;;;;;;2.10;1.40;;;7.70;77.30;;;;;;5038197;28;20438;-88
2021/12/08 09:35:34;;;;;;;1.73;1.33;;;7.80;77.30;;;;;;5038482;28;20025;-90
2021/12/08 09:38:11;;;;;;;2.00;1.40;;;7.80;77.40;;;;;;5027314;28;20044;-90
2021/12/08 09:40:57;;;;;;;2.10;1.35;;;7.80;77.30;;;;;;5054503;28;20060;-91
2021/12/08 09:43:33;;;;;;;;;;;7.70;77.30;;;;;;5054700;28;20041;-92
2021/12/08 09:46:08;;;;;;;2.20;1.30;;;7.80;77.20;;;;;;5054567;28;19913;-91
2021/12/08 09:48:41;;;;;;;2.67;1.40;;;7.80;77.10;;;;;;5037615;28;20040;-90
2021/12/08 09:51:07;;;;;;;1.77;1.30;;;7.80;77.30;;;;;;5037797;28;20120;-91
2021/12/08 09:53:38;;;;;;;3.45;1.70;;;7.80;77.30;;;;;;5037225;28;20048;-89
2021/12/08 09:56:07;;;;;;;2.03;1.50;;;7.80;77.30;;;;;;5054394;28;20109;-89
2021/12/08 09:58:35;;;;;;;1.63;1.20;;;7.80;77.30;;;;;;5054220;28;20079;-89
2021/12/08 10:01:04;;;;;;;3.67;1.40;;;7.80;77.30;;;;;;5037398;28;20021;-90
2021/12/08 10:03:32;;;;;;;1.83;1.33;;;7.80;77.30;;;;;;5055189;28;20060;-90
2021/12/08 10:06:03;;;;;;;1.70;1.40;;;7.80;77.20;;;;;;5043189;28;20035;-88
2021/12/08 10:08:29;;;;;;;1.50;1.40;;;7.80;77.20;;;;;;5054100;28;20036;-92
2021/12/08 10:10:58;;;;;;;2.10;1.55;;;7.80;77.20;;;;;;5037830;28;20013;-93
2021/12/08 10:13:51;;;;;;;1.85;1.30;;;7.80;77.20;;;;;;5055046;28;20029;-95
2021/12/08 10:16:20;;;;;;;2.05;1.38;;;7.80;77.30;;;;;;5037457;28;20045;-92
2021/12/08 10:18:55;;;;;;;1.88;1.30;;;7.80;77.80;;;;;;5041605;28;20036;-95
2021/12/08 10:21:41;;;;;;;1.60;1.50;;;7.80;77.20;;;;;;5048733;28;20040;-91
2021/12/08 10:24:18;;;;;;;1.55;1.30;;;7.90;77.40;;;;;;5047022;28;20064;-91
2021/12/08 10:26:45;;;;;;;1.83;1.42;;;7.80;77.30;;;;;;5037325;28;20119;-91
2021/12/08 10:29:11;;;;;;;2.85;1.50;;;7.90;77.30;;;;;;5053710;28;20110;-89
2021/12/08 10:31:47;;;;;;;1.85;1.23;;;7.90;77.40;;;;;;5037142;28;20424;-90
2021/12/08 10:36:50;;;;;;;1.60;1.30;;;7.90;77.30;;;;;;5053188;28;20033;-91
2021/12/08 10:39:24;;;;;;;1.50;1.27;;;7.80;77.30;;;;;;5053538;28;20032;-91
2021/12/08 10:42:07;;;;;;;1.43;1.30;;;7.90;77.40;;;;;;5054140;28;20029;-90
2021/12/08 10:44:50;;;;;;;1.30;1.20;;;7.90;77.30;;;;;;5037437;28;20051;-91
2021/12/08 10:47:31;;;;;;;1.35;1.25;;;7.90;77.30;;;;;;5037985;28;20063;-91
2021/12/08 10:55:33;;;;;;;2.45;1.50;;;7.90;77.40;;;;;;5053296;28;20033;-89
2021/12/08 10:57:59;;;;;;;1.30;1.20;;;7.90;77.30;;;;;;5037019;28;20168;-90
2021/12/08 11:00:30;;;;;;;2.03;1.30;;;7.90;77.40;;;;;;5036940;28;20025;-91
2021/12/08 11:03:02;;;;;;;2.63;1.30;;;7.90;77.40;;;;;;5039597;28;20051;-91
2021/12/08 11:05:49;;;;;;;2.08;1.48;;;8.00;77.50;;;;;;5041306;28;20412;-91
2021/12/08 11:08:29;;;;;;;1.83;1.38;;;8.00;77.50;;;;;;5040738;28;20037;-90
2021/12/08 11:11:00;;;;;;;1.75;1.20;;;7.90;77.30;;;;;;5040776;28;20036;-91
2021/12/08 11:13:35;;;;;;;2.03;1.30;;;7.90;77.30;;;;;;5057778;28;20120;-90
2021/12/08 11:16:07;;;;;;;;;;;8.00;77.40;;;;;;5040771;28;20045;-91
2021/12/08 11:19:10;;;;;;;2.40;1.35;;;8.00;77.40;;;;;;5057516;28;19958;-89
2021/12/08 11:21:50;;;;;;;1.92;1.38;;;8.00;77.40;;;;;;5024929;28;20052;-91
2021/12/08 11:24:34;;;;;;;2.55;1.40;;;8.00;77.40;;;;;;5040621;28;20036;-90
2021/12/08 11:27:06;;;;;;;1.40;1.20;;;8.00;77.40;;;;;;5041140;28;20029;-92
2021/12/08 11:29:35;;;;;;;1.92;1.30;;;8.00;77.50;;;;;;5063516;28;20145;-90
2021/12/08 11:32:07;;;;;;;1.70;1.40;;;8.00;77.50;;;;;;5047357;28;20491;-91
2021/12/08 11:34:39;;;;;;;1.30;1.20;;;8.00;77.50;;;;;;5040334;28;20060;-90
2021/12/08 11:37:13;;;;;;;2.10;1.20;;;8.00;77.50;;;;;;5039874;28;20033;-91
2021/12/08 11:39:52;;;;;;;1.38;1.23;;;8.00;77.50;;;;;;5040411;28;20067;-90
2021/12/08 11:42:24;;;;;;;1.77;1.30;;;8.10;77.50;;;;;;5040007;28;20033;-83
2021/12/08 11:45:23;;;;;;;1.33;1.23;;;8.10;77.50;;;;;;5057570;28;20108;-92
2021/12/08 11:47:49;;;;;;;2.33;1.45;;;8.10;77.70;;;;;;5039965;28;20029;-87
2021/12/08 11:50:21;;;;;;;2.15;1.30;;;8.10;77.50;;;;;;5040004;28;20039;-87
2021/12/08 11:52:55;;;;;;;1.52;1.38;;;8.10;77.50;;;;;;5056147;28;20119;-85
2021/12/08 11:55:23;;;;;;;1.80;1.40;;;8.10;77.50;;;;;;5039220;28;20032;-83
2021/12/08 11:57:54;;;;;;;1.35;1.23;;;8.10;77.50;;;;;;5039335;28;20120;-85
2021/12/08 12:00:30;;;;;;;1.92;1.38;;;8.20;77.70;;;;;;5055791;28;20033;-86
2021/12/08 12:03:01;;;;;;;2.53;1.27;;;8.10;77.60;;;;;;5055472;28;20072;-84
2021/12/08 12:05:32;;;;;;;1.90;1.30;;;8.20;77.70;;;;;;5039096;28;20044;-85
2021/12/08 12:07:59;;;;;;;2.25;1.48;;;8.20;77.70;;;;;;5055752;28;20060;-88
2021/12/08 12:10:31;;;;;;;2.40;1.30;;;8.20;77.60;;;;;;5038733;28;20078;-85
2021/12/08 12:12:58;;;;;;;1.85;1.27;;;8.20;77.60;;;;;;5055355;28;20032;-87
2021/12/08 12:15:25;;;;;;;1.20;1.10;;;8.30;77.70;;;;;;5038469;28;20048;-87
2021/12/08 12:17:51;;;;;;;1.75;1.20;;;8.30;77.70;;;;;;5055956;28;20115;-87
2021/12/08 12:20:49;;;;;;;1.67;1.42;;;8.30;77.70;;;;;;5056147;28;20033;-86
2021/12/08 12:23:44;;;;;;;2.28;1.40;;;8.30;77.80;;;;;;4985237;28;20071;-86
2021/12/08 12:26:22;;;;;;;1.40;1.30;;;8.30;77.60;;;;;;5056188;28;20029;-86
2021/12/08 12:29:01;;;;;;;2.17;1.40;;;8.30;77.60;;;;;;5055139;28;20309;-86
2021/12/08 12:31:51;;;;;;;1.38;1.27;;;8.40;77.70;;;;;;5055557;28;20025;-86
2021/12/08 12:34:34;;;;;;;1.50;1.40;;;8.40;77.70;;;;;;5038861;28;20059;-86
2021/12/08 12:37:15;;;;;;;2.25;1.40;;;8.40;77.70;;;;;;5055661;28;20033;-86
2021/12/08 12:39:53;;;;;;;2.47;1.30;;;8.40;77.70;;;;;;5056326;28;20082;-85
2021/12/08 12:42:20;;;;;;;1.48;1.35;;;8.40;77.70;;;;;;5055029;28;20029;-85
2021/12/08 12:44:58;;;;;;;2.00;1.33;;;8.40;77.70;;;;;;5038679;28;20033;-86
2021/12/08 12:47:30;;;;;;;2.83;1.60;;;8.40;77.80;;;;;;5054908;28;20112;-86
2021/12/08 12:50:13;;;;;;;1.65;1.27;;;8.40;77.60;;;;;;5055636;28;20041;-87
2021/12/08 12:52:51;;;;;;;2.65;1.50;;;8.50;77.80;;;;;;5054575;28;20037;-87
2021/12/08 12:55:19;;;;;;;1.58;1.20;;;8.50;77.70;;;;;;5055182;28;20505;-86
2021/12/08 12:58:05;;;;;;;1.90;1.70;;;8.50;77.60;;;;;;5038414;28;20013;-85
2021/12/08 13:00:33;;;;;;;1.40;1.30;;;8.50;77.70;;;;;;5054716;28;20473;-87
2021/12/08 13:03:01;;;;;;;1.75;1.52;;;8.50;77.50;;;;;;5038298;28;20362;-85
2021/12/08 13:05:50;;;;;;;1.67;1.58;;;8.60;77.70;;;;;;5038050;28;20094;-84
2021/12/08 13:08:43;;;;;;;2.50;1.50;;;8.60;77.80;;;;;;5054911;28;20033;-85
2021/12/08 13:11:41;;;;;;;1.80;1.25;;;8.60;77.70;;;;;;5054787;28;20025;-85
2021/12/08 13:14:19;;;;;;;2.58;1.55;;;8.60;77.70;;;;;;5055319;28;20033;-86
2021/12/08 13:16:45;;;;;;;2.38;1.70;;;8.60;77.60;;;;;;5054546;28;20049;-84
2021/12/08 13:19:11;;;;;;;1.40;1.30;;;8.70;77.50;;;;;;5054581;28;20033;-84
2021/12/08 13:21:44;;;;;;;2.13;1.40;;;8.70;77.60;;;;;;5054243;28;20091;-85
2021/12/08 13:24:35;;;;;;;2.35;1.52;;;8.70;77.60;;;;;;5054370;28;20127;-85
2021/12/08 13:27:17;;;;;;;1.85;1.35;;;8.70;77.70;;;;;;5053664;28;20063;-85
2021/12/08 13:29:46;;;;;;;1.52;1.30;;;8.70;77.60;;;;;;5037577;28;20035;-85
2021/12/08 13:32:16;;;;;;;3.10;1.40;;;8.80;77.60;;;;;;5054086;28;20493;-84
2021/12/08 13:34:58;;;;;;;1.65;1.27;;;8.80;77.60;;;;;;5038190;28;20029;-84
2021/12/08 13:37:29;;;;;;;1.85;1.40;;;8.80;77.60;;;;;;5055248;28;20048;-85
2021/12/08 13:40:06;;;;;;;2.08;1.60;;;8.80;77.60;;;;;;5020972;28;20033;-85
2021/12/08 13:42:34;;;;;;;2.17;1.50;;;8.80;77.60;;;;;;5053415;28;20033;-85
2021/12/08 13:45:14;;;;;;;1.85;1.33;;;8.80;77.50;;;;;;5037844;28;20029;-85
2021/12/08 13:47:42;;;;;;;4.10;1.73;;;8.80;77.80;;;;;;5055487;28;20025;-85
2021/12/08 13:50:11;;;;;;;1.45;1.35;;;8.90;77.50;;;;;;5054154;28;20067;-86
2021/12/08 13:52:40;;;;;;;1.90;1.40;;;8.80;77.50;;;;;;5037476;28;20055;-85
2021/12/08 13:55:09;;;;;;;2.50;1.55;;;8.90;77.60;;;;;;5053392;28;20025;-85
2021/12/08 13:57:42;;;;;;;1.45;1.30;;;8.90;77.60;;;;;;5053970;28;20049;-85
2021/12/08 14:00:17;;;;;;;1.65;1.40;;;8.90;77.60;;;;;;5037445;28;20064;-86
2021/12/08 14:02:51;;;;;;;1.50;1.33;;;8.90;77.60;;;;;;5054307;28;20029;-84
2021/12/08 14:05:30;;;;;;;1.75;1.58;;;8.90;77.50;;;;;;5054176;28;20056;-84
2021/12/08 14:07:59;;;;;;;2.88;1.67;;;9.00;77.60;;;;;;5036979;28;20439;-85
2021/12/08 14:10:39;;;;;;;2.25;1.55;;;9.00;77.50;;;;;;5036942;28;20029;-84
2021/12/08 14:13:09;;;;;;;3.10;1.60;;;9.00;77.50;;;;;;5054569;28;20029;-84
2021/12/08 14:15:55;;;;;;;1.80;1.48;;;9.00;77.40;;;;;;5054196;28;20045;-84
2021/12/08 14:18:27;;;;;;;1.42;1.33;;;9.00;77.40;;;;;;5037116;28;20060;-84
2021/12/08 14:20:56;;;;;;;2.35;1.50;;;9.00;77.30;;;;;;5053325;28;20033;-84
2021/12/08 14:23:24;;;;;;;1.70;1.40;;;9.10;77.40;;;;;;5053668;28;20029;-82
2021/12/08 14:25:55;;;;;;;2.50;1.70;;;9.10;77.40;;;;;;5053025;28;20424;-84
2021/12/08 14:28:39;;;;;;;2.17;1.55;;;9.10;77.30;;;;;;5036641;28;20025;-84
2021/12/08 14:31:16;;;;;;;2.40;1.77;;;9.10;77.30;;;;;;5037507;28;20074;-84
2021/12/08 14:33:51;;;;;;;2.35;1.48;;;9.10;77.30;;;;;;5054442;28;20029;-85
2021/12/08 14:36:17;;;;;;;2.70;1.52;;;9.10;77.30;;;;;;5053787;28;20025;-85
2021/12/08 14:38:53;;;;;;;2.67;1.50;;;9.10;77.20;;;;;;5040376;28;20120;-85
2021/12/08 14:41:23;;;;;;;1.40;1.30;;;9.10;77.30;;;;;;5057348;28;20495;-84
2021/12/08 14:43:52;;;;;;;1.77;1.55;;;9.10;77.20;;;;;;5056823;28;20029;-85
2021/12/08 14:46:21;;;;;;;2.42;1.60;;;9.10;77.20;;;;;;5040617;28;20518;-85
2021/12/08 14:49:02;;;;;;;2.25;1.55;;;9.10;77.20;;;;;;5057363;28;20025;-85
2021/12/08 14:51:30;;;;;;;1.75;1.50;;;9.10;77.30;;;;;;5057229;28;20040;-86
2021/12/08 14:54:25;;;;;;;2.20;1.50;;;9.10;77.20;;;;;;5059661;28;20044;-87
2021/12/08 14:57:37;;;;;;;1.53;1.30;;;9.10;77.20;;;;;;5058031;28;20025;-86
2021/12/08 15:00:13;;;;;;;2.00;1.60;;;9.10;77.20;;;;;;5053855;28;20044;-86
2021/12/08 15:02:56;;;;;;;3.92;1.52;;;9.10;77.10;;;;;;5057282;28;20102;-85
2021/12/08 15:05:23;;;;;;;2.45;1.50;;;9.10;77.10;;;;;;5040496;28;20037;-86
2021/12/08 15:07:51;;;;;;;1.80;1.50;;;9.10;77.10;;;;;;5024052;28;20021;-85
2021/12/08 15:10:25;;;;;;;2.17;1.50;;;9.10;77.10;;;;;;5024485;28;20036;-86
2021/12/08 15:12:51;;;;;;;1.60;1.42;;;9.10;77.10;;;;;;5040217;28;20029;-84
2021/12/08 15:15:25;;;;;;;1.67;1.40;;;9.10;77.10;;;;;;5039931;28;20044;-84
2021/12/08 15:18:09;;;;;;;1.45;1.33;;;9.10;77.10;;;;;;5040267;28;20029;-85
2021/12/08 15:20:38;;;;;;;1.50;1.40;;;9.10;77.10;;;;;;5057435;28;20029;-82
2021/12/08 15:23:13;;;;;;;2.08;1.50;;;9.10;77.00;;;;;;5039688;28;20052;-83
2021/12/08 15:25:47;;;;;;;1.73;1.40;;;9.10;77.00;;;;;;5057056;28;20441;-82
2021/12/08 15:28:20;;;;;;;1.70;1.38;;;9.10;77.00;;;;;;5056949;28;20029;-82
2021/12/08 15:30:50;;;;;;;1.67;1.42;;;9.10;77.00;;;;;;5039819;28;20021;-82
2021/12/08 15:33:17;;;;;;;2.22;1.40;;;9.00;77.00;;;;;;5056039;28;20029;-83
2021/12/08 15:35:45;;;;;;;2.20;1.48;;;9.10;77.00;;;;;;5039527;28;20025;-82
2021/12/08 15:38:13;;;;;;;1.50;1.40;;;9.00;76.90;;;;;;5056883;28;20604;-83
2021/12/08 15:40:42;;;;;;;2.25;1.48;;;9.00;76.90;;;;;;5039688;28;20430;-83
2021/12/08 15:43:11;;;;;;;1.52;1.42;;;9.00;77.00;;;;;;5039175;28;20029;-81
2021/12/08 15:45:40;;;;;;;1.70;1.50;;;9.00;76.90;;;;;;5038779;28;20113;-82
2021/12/08 15:48:18;;;;;;;2.30;1.58;;;9.00;76.90;;;;;;5055070;28;20067;-82
2021/12/08 15:50:47;;;;;;;1.48;1.38;;;9.00;77.00;;;;;;5039190;28;20037;-82
2021/12/08 15:53:36;;;;;;;1.92;1.52;;;9.00;76.90;;;;;;5056567;28;20068;-83
2021/12/08 15:56:16;;;;;;;2.45;1.50;;;8.90;77.00;;;;;;5056532;28;20338;-81
2021/12/08 15:58:52;;;;;;;2.97;1.65;;;9.00;76.90;;;;;;5055945;28;20064;-82
2021/12/08 16:01:24;;;;;;;3.72;1.70;;;8.90;76.90;;;;;;5039363;28;20442;-82
2021/12/08 16:03:56;;;;;;;2.72;1.60;;;8.90;76.80;;;;;;5056341;28;20040;-82
2021/12/08 16:06:40;;;;;;;1.77;1.50;;;8.80;76.80;;;;;;5039068;28;20029;-83
2021/12/08 16:09:15;;;;;;;2.33;1.52;;;8.90;76.90;;;;;;5039606;28;20057;-83
2021/12/08 16:11:41;;;;;;;1.63;1.50;;;8.80;76.80;;;;;;5038802;28;20474;-81
2021/12/08 16:14:27;;;;;;;1.52;1.42;;;8.80;76.80;;;;;;5039264;28;20032;-84
2021/12/08 16:17:12;;;;;;;3.03;1.70;;;8.80;76.90;;;;;;5056491;28;20063;-83
2021/12/08 16:19:41;;;;;;;2.58;1.52;;;8.80;76.80;;;;;;5056526;28;20087;-83
2021/12/08 16:22:09;;;;;;;2.85;1.85;;;8.80;76.80;;;;;;5040566;28;20070;-82
2021/12/08 16:24:35;;;;;;;2.75;1.67;;;8.80;76.80;;;;;;5058645;28;20036;-82
2021/12/08 16:27:05;;;;;;;1.60;1.50;;;8.70;76.70;;;;;;5039457;28;20040;-82
2021/12/08 16:29:34;;;;;;;4.03;1.90;;;8.70;76.70;;;;;;5041987;28;20044;-83
2021/12/08 16:32:03;;;;;;;2.10;1.80;;;8.60;76.70;;;;;;5055402;28;20023;-83
2021/12/08 16:34:29;;;;;;;2.85;1.75;;;8.60;76.70;;;;;;5056335;28;20082;-83
2021/12/08 16:36:57;;;;;;;2.83;1.70;;;8.60;76.60;;;;;;5055073;28;20029;-84
2021/12/08 16:39:29;;;;;;;3.83;2.10;;;8.60;76.70;;;;;;5038633;28;20036;-82
2021/12/08 16:44:42;;;;;;;2.53;1.85;;;8.60;76.60;;;;;;5041475;28;20076;-83
2021/12/08 16:47:09;;;;;;;2.45;1.70;;;8.50;76.50;;;;;;5022875;28;20024;-83
2021/12/08 16:49:35;;;;;;;2.65;1.73;;;8.50;76.50;;;;;;5054747;28;20029;-82
2021/12/08 16:52:02;;;;;;;2.50;1.98;;;8.50;76.50;;;;;;5038275;28;20028;-85
2021/12/08 16:54:28;;;;;;;3.00;1.95;;;8.50;76.60;;;;;;5038515;28;20029;-86